createdAt,value
2023-01-05T02:23:53.509Z,4.96
2023-01-05T02:49:42.739Z,5.04
2023-01-05T02:52:34.335Z,4.81
2023-01-05T02:55:23.525Z,4.90
2023-01-05T03:04:07.099Z,4.87
2023-01-05T03:12:12.869Z,5.13
2023-01-05T03:32:23.286Z,5.09
2023-01-05T03:46:27.413Z,5.78
2023-01-05T03:49:00.123Z,5.98
2023-01-05T03:51:30.149Z,6.10
2023-01-05T03:54:18.492Z,6.08
2023-01-05T04:03:31.723Z,5.65
2023-01-05T04:06:28.635Z,5.39
2023-01-05T05:25:39.192Z,5.36
2023-01-05T05:48:33.030Z,5.26
2023-01-05T06:00:36.384Z,5.34
2023-01-05T06:03:06.603Z,5.46
2023-01-05T06:05:39.201Z,5.50
2023-01-05T06:08:49.938Z,5.59
2023-01-05T06:11:54.035Z,5.19
2023-01-05T06:14:23.678Z,5.32
2023-01-05T06:16:58.050Z,5.73
2023-01-05T06:22:30.339Z,5.49
2023-01-05T06:26:33.046Z,5.48
2023-01-05T06:29:01.007Z,5.35
2023-01-05T06:31:36.670Z,5.24
2023-01-05T06:34:35.502Z,5.34
2023-01-05T06:37:06.521Z,5.27
2023-01-05T06:39:33.675Z,5.12
2023-01-05T06:42:09.018Z,5.26
2023-01-05T06:44:40.392Z,5.35
2023-01-05T06:47:07.523Z,5.76
2023-01-05T06:49:34.669Z,5.64
2023-01-05T06:52:02.380Z,5.23
2023-01-05T06:54:35.515Z,5.40
2023-01-05T06:57:11.868Z,5.46
2023-01-05T06:59:42.143Z,5.32
2023-01-05T07:02:18.032Z,5.73
2023-01-05T07:04:45.596Z,5.46
2023-01-05T07:07:16.680Z,5.64
2023-01-05T07:12:46.768Z,5.77
2023-01-05T07:15:16.168Z,5.75
2023-01-05T07:17:43.188Z,5.60
2023-01-05T07:20:15.286Z,5.61
2023-01-05T07:22:42.459Z,5.75
2023-01-05T07:25:19.501Z,5.82
2023-01-05T07:27:51.465Z,6.15
2023-01-05T07:30:18.733Z,6.48
2023-01-05T07:32:45.824Z,6.12
2023-01-05T07:35:12.639Z,6.02
2023-01-05T07:37:39.375Z,6.52
2023-01-05T07:40:07.069Z,6.60
2023-01-05T07:42:34.090Z,6.18
2023-01-05T07:45:02.094Z,6.07
2023-01-05T07:47:28.959Z,6.14
2023-01-05T07:49:58.143Z,6.40
2023-01-05T07:52:24.999Z,6.86
2023-01-05T07:54:51.987Z,6.40
2023-01-05T07:57:18.844Z,6.83
2023-01-05T07:59:51.964Z,7.01
2023-01-05T08:02:21.465Z,6.73
2023-01-05T08:04:48.386Z,7.09
2023-01-05T08:07:17.906Z,7.37
2023-01-05T08:10:03.912Z,7.47
2023-01-05T08:12:31.107Z,7.64
2023-01-05T08:14:58.161Z,7.57
2023-01-05T08:17:25.113Z,8.31
2023-01-05T08:19:51.928Z,8.73
2023-01-05T08:22:18.802Z,9.23
2023-01-05T08:24:45.624Z,9.50
2023-01-05T08:27:12.500Z,9.14
2023-01-05T08:29:42.158Z,9.54
2023-01-05T08:32:11.687Z,9.56
2023-01-05T08:34:41.989Z,9.36
2023-01-05T08:37:08.984Z,9.62
2023-01-05T08:39:36.254Z,9.26
2023-01-05T08:42:03.265Z,9.89
2023-01-05T08:44:30.066Z,10.07
2023-01-05T08:46:59.287Z,9.74
2023-01-05T08:49:35.147Z,10.03
2023-01-05T08:52:05.631Z,9.96
2023-01-05T08:54:41.327Z,10.67
2023-01-05T08:57:09.260Z,10.33
2023-01-05T08:59:36.050Z,10.77
2023-01-05T09:02:09.045Z,11.10
2023-01-05T09:04:36.023Z,10.19
2023-01-05T09:07:02.964Z,10.88
2023-01-05T09:09:29.896Z,10.77
2023-01-05T09:11:56.871Z,11.25
2023-01-05T09:14:23.898Z,10.94
2023-01-05T09:17:10.271Z,11.39
2023-01-05T09:19:39.560Z,10.97
2023-01-05T09:22:06.363Z,11.53
2023-01-05T09:24:45.682Z,11.35
2023-01-05T09:27:12.710Z,11.38
2023-01-05T09:29:39.544Z,11.31
2023-01-05T09:32:07.909Z,11.30
2023-01-05T09:34:34.681Z,11.32
2023-01-05T09:37:01.452Z,11.32
2023-01-05T09:39:42.963Z,11.90
2023-01-05T09:42:19.391Z,12.17
2023-01-05T09:45:17.482Z,12.16
2023-01-05T09:48:24.696Z,12.55
2023-01-05T09:57:32.656Z,12.68
2023-01-05T10:00:04.210Z,11.99
2023-01-05T10:02:50.071Z,12.61
2023-01-05T10:05:17.688Z,12.77
2023-01-05T10:07:50.441Z,12.54
2023-01-05T10:10:42.615Z,12.26
2023-01-05T10:13:27.448Z,12.31
2023-01-05T10:15:55.848Z,13.29
2023-01-05T10:18:26.626Z,11.85
2023-01-05T10:20:53.529Z,12.75
2023-01-05T10:23:42.506Z,13.19
2023-01-05T10:26:25.242Z,13.09
2023-01-05T10:29:08.725Z,13.12
2023-01-05T10:31:42.116Z,12.85
2023-01-05T10:34:33.007Z,12.97
2023-01-05T10:37:24.636Z,13.27
2023-01-05T10:39:56.662Z,12.94
2023-01-05T10:42:23.616Z,13.12
2023-01-05T10:44:57.061Z,13.46
2023-01-05T10:47:26.663Z,13.96
2023-01-05T10:49:54.043Z,13.38
2023-01-05T10:52:22.970Z,13.42
2023-01-05T10:55:02.287Z,13.66
2023-01-05T10:57:34.616Z,12.98
2023-01-05T11:00:22.073Z,13.03
2023-01-05T11:02:58.018Z,12.93
2023-01-05T11:05:36.686Z,13.13
2023-01-05T11:08:07.541Z,12.79
2023-01-05T11:10:49.112Z,12.84
2023-01-05T11:13:16.148Z,13.19
2023-01-05T11:16:12.890Z,12.65
2023-01-05T11:19:10.561Z,12.75
2023-01-05T11:21:45.748Z,13.00
2023-01-05T11:24:25.111Z,12.81
2023-01-05T11:26:59.423Z,12.94
2023-01-05T11:29:26.465Z,12.89
2023-01-05T11:32:05.507Z,13.06
2023-01-05T11:34:38.571Z,12.13
2023-01-05T11:37:28.762Z,12.89
2023-01-05T11:40:06.134Z,12.47
2023-01-05T11:51:50.581Z,13.93
2023-01-05T11:54:34.171Z,14.18
2023-01-05T11:57:30.929Z,14.04
2023-01-05T11:59:58.924Z,14.38
2023-01-05T12:02:44.029Z,13.82
2023-01-05T12:05:30.721Z,13.13
2023-01-05T12:08:07.948Z,13.05
2023-01-05T12:10:47.425Z,13.27
2023-01-05T12:14:02.142Z,13.43
2023-01-05T12:16:56.827Z,13.37
2023-01-05T12:19:43.212Z,13.60
2023-01-05T12:22:46.398Z,12.89
2023-01-05T12:25:26.516Z,13.22
2023-01-05T12:28:05.029Z,13.38
2023-01-05T12:34:18.596Z,13.26
2023-01-05T12:37:00.730Z,13.67
2023-01-05T12:39:41.955Z,13.62
2023-01-05T12:42:35.591Z,13.62
2023-01-05T12:45:31.835Z,13.54
2023-01-05T12:48:08.469Z,13.29
2023-01-05T12:50:52.771Z,13.38
2023-01-05T12:53:43.563Z,13.23
2023-01-05T12:56:23.670Z,13.16
2023-01-05T12:59:23.698Z,13.53
2023-01-05T13:02:04.780Z,13.46
2023-01-05T13:04:49.396Z,13.50
2023-01-05T13:07:25.505Z,13.64
2023-01-05T13:10:03.902Z,13.45
2023-01-05T13:12:32.096Z,13.51
2023-01-05T13:15:17.365Z,13.40
2023-01-05T13:17:53.805Z,13.48
2023-01-05T13:20:39.017Z,13.33
2023-01-05T13:23:22.838Z,13.34
2023-01-05T13:26:02.086Z,13.30
2023-01-05T13:28:31.303Z,13.22
2023-01-05T13:31:37.133Z,13.02
2023-01-05T13:34:31.931Z,13.06
2023-01-05T13:37:22.018Z,13.14
2023-01-05T13:40:09.478Z,13.10
2023-01-05T13:43:01.460Z,13.06
2023-01-05T13:45:53.910Z,13.00
2023-01-05T13:49:04.576Z,12.90
2023-01-05T13:51:56.420Z,13.17
2023-01-05T13:55:02.394Z,12.91
2023-01-05T13:57:39.723Z,12.78
2023-01-05T14:00:21.564Z,12.69
2023-01-05T14:03:00.525Z,12.61
2023-01-05T14:05:37.237Z,12.58
2023-01-05T14:20:39.628Z,12.60
2023-01-05T14:37:28.326Z,12.14
2023-01-05T14:46:48.546Z,12.06
2023-01-05T20:18:00.429Z,4.82
2023-01-05T21:23:43.701Z,4.00
2023-01-05T21:31:56.821Z,3.88
2023-01-05T21:34:30.452Z,3.87
2023-01-05T21:36:57.778Z,3.78
2023-01-05T21:39:28.845Z,3.70
2023-01-05T21:42:20.538Z,4.10
2023-01-05T21:45:03.110Z,3.80
2023-01-05T21:47:48.037Z,3.55
2023-01-05T21:50:47.749Z,3.33
2023-01-05T21:53:36.151Z,3.36
2023-01-05T21:56:30.051Z,3.38
2023-01-05T21:59:12.456Z,3.60
2023-01-05T22:01:44.370Z,3.98
2023-01-05T22:04:14.704Z,3.94
2023-01-05T22:06:41.735Z,3.85
2023-01-05T22:09:09.741Z,4.03
2023-01-05T22:11:41.311Z,3.89
2023-01-05T22:14:08.726Z,3.77
2023-01-05T22:16:36.034Z,4.11
2023-01-05T22:19:03.541Z,3.94
2023-01-05T22:21:31.249Z,4.01
2023-01-05T22:24:17.600Z,4.05
